createdAt,value
2023-04-10T00:02:06.243Z,101016.88
2023-04-10T00:04:43.162Z,101019.86
2023-04-10T00:07:17.038Z,101017.27
2023-04-10T00:09:45.808Z,101016.70
2023-04-10T00:12:18.474Z,101018.95
2023-04-10T00:15:04.635Z,101019.45
2023-04-10T00:17:39.130Z,101018.48
2023-04-10T00:20:14.021Z,101016.23
2023-04-10T00:22:44.116Z,101016.14
2023-04-10T00:25:17.181Z,101013.44
2023-04-10T00:27:45.723Z,101011.80
2023-04-10T00:30:13.903Z,101008.86
2023-04-10T00:33:06.521Z,101004.48
2023-04-10T00:35:40.958Z,101003.94
2023-04-10T00:38:09.225Z,100998.88
2023-04-10T00:40:46.104Z,100994.51
2023-04-10T00:43:15.754Z,100993.22
2023-04-10T00:45:47.088Z,100998.45
2023-04-10T00:48:20.636Z,101001.27
2023-04-10T00:50:48.798Z,101005.99
2023-04-10T00:53:17.425Z,101006.83
2023-04-10T00:55:46.411Z,101009.99
2023-04-10T00:58:16.795Z,101012.84
2023-04-10T01:00:53.450Z,101012.68
2023-04-10T01:03:23.051Z,101010.98
2023-04-10T01:06:06.735Z,101012.37
2023-04-10T01:08:36.637Z,101012.85
2023-04-10T01:11:18.473Z,101012.81
2023-04-10T01:14:02.313Z,101009.69
2023-04-10T01:16:37.054Z,101009.15
2023-04-10T01:19:34.555Z,101008.02
2023-04-10T01:22:03.203Z,101005.68
2023-04-10T01:25:19.616Z,101005.11
2023-04-10T01:27:51.699Z,101006.29
2023-04-10T01:30:20.865Z,101006.32
2023-04-10T01:32:54.070Z,101008.44
2023-04-10T01:35:24.772Z,101000.79
2023-04-10T01:37:55.754Z,101002.60
2023-04-10T01:40:26.903Z,101000.70
2023-04-10T01:42:57.181Z,100997.42
2023-04-10T01:45:33.785Z,100999.73
2023-04-10T01:48:04.419Z,101004.20
2023-04-10T01:50:33.508Z,101003.86
2023-04-10T01:53:02.055Z,101007.60
2023-04-10T01:55:30.696Z,101004.36
2023-04-10T01:58:05.027Z,101008.01
2023-04-10T02:00:43.461Z,101005.52
2023-04-10T02:03:12.298Z,101003.89
2023-04-10T02:06:03.560Z,101003.66
2023-04-10T02:08:41.355Z,101005.47
2023-04-10T02:11:13.463Z,101002.70
2023-04-10T02:13:42.750Z,101004.63
2023-04-10T02:19:04.704Z,101008.37
2023-04-10T02:21:35.256Z,101005.98
2023-04-10T02:24:39.379Z,101007.78
2023-04-10T02:27:00.375Z,101009.31
2023-04-10T02:29:39.110Z,101008.96
2023-04-10T02:32:08.489Z,101009.91
2023-04-10T02:34:36.948Z,101007.29
2023-04-10T02:37:09.031Z,101008.88
2023-04-10T02:39:38.040Z,101012.13
2023-04-10T02:42:08.420Z,101011.98
2023-04-10T02:44:41.772Z,101013.89
2023-04-10T02:47:13.328Z,101013.23
2023-04-10T02:49:46.712Z,101014.55
2023-04-10T02:52:17.403Z,101014.96
2023-04-10T02:54:47.715Z,101015.61
2023-04-10T02:57:16.408Z,101016.16
2023-04-10T02:59:45.851Z,101018.22
2023-04-10T03:02:17.980Z,101017.04
2023-04-10T03:04:51.372Z,101018.91
2023-04-10T03:07:27.560Z,101017.95
2023-04-10T03:09:56.130Z,101020.01
2023-04-10T03:12:26.876Z,101015.70
2023-04-10T03:14:55.841Z,101016.17
2023-04-10T03:17:27.182Z,101014.83
2023-04-10T03:19:55.480Z,101017.30
2023-04-10T03:22:23.868Z,101019.45
2023-04-10T03:24:54.149Z,101021.94
2023-04-10T03:27:27.913Z,101020.54
2023-04-10T03:29:58.847Z,101019.95
2023-04-10T03:32:29.497Z,101021.06
2023-04-10T03:34:58.535Z,101027.30
2023-04-10T03:37:27.861Z,101028.16
2023-04-10T03:39:56.829Z,101028.85
2023-04-10T03:42:25.684Z,101032.55
2023-04-10T03:44:54.642Z,101034.66
2023-04-10T03:47:22.924Z,101034.99
2023-04-10T03:50:03.296Z,101036.19
2023-04-10T03:52:38.610Z,101036.91
2023-04-10T03:55:10.544Z,101037.34
2023-04-10T03:57:41.803Z,101038.92
2023-04-10T04:00:12.551Z,101041.02
2023-04-10T04:02:58.626Z,101040.79
2023-04-10T04:05:46.158Z,101042.62
2023-04-10T04:08:29.717Z,101046.20
2023-04-10T04:11:16.816Z,101045.88
2023-04-10T04:14:08.044Z,101045.52
2023-04-10T04:17:06.033Z,101045.79
2023-04-10T04:19:57.373Z,101047.75
2023-04-10T04:22:47.618Z,101048.35
2023-04-10T04:25:34.562Z,101050.62
2023-04-10T04:28:21.378Z,101053.24
2023-04-10T04:31:13.720Z,101052.52
2023-04-10T04:34:20.483Z,101054.66
2023-04-10T04:37:07.731Z,101055.41
2023-04-10T04:39:56.590Z,101057.88
2023-04-10T04:42:25.897Z,101060.38
2023-04-10T04:45:12.958Z,101058.63
2023-04-10T04:48:01.192Z,101060.36
2023-04-10T04:50:41.734Z,101065.98
2023-04-10T04:53:23.203Z,101065.39
2023-04-10T04:55:52.712Z,101068.91
2023-04-10T04:58:39.968Z,101071.42
2023-04-10T05:01:20.635Z,101074.43
2023-04-10T05:04:15.791Z,101077.64
2023-04-10T05:06:58.008Z,101081.20
2023-04-10T05:09:40.049Z,101079.70
2023-04-10T05:12:26.868Z,101081.77
2023-04-10T05:15:00.459Z,101079.92
2023-04-10T05:17:39.497Z,101081.70
2023-04-10T05:20:37.121Z,101083.81
2023-04-10T05:23:19.474Z,101084.08
2023-04-10T05:26:06.809Z,101082.84
2023-04-10T05:29:04.549Z,101082.73
2023-04-10T05:31:59.688Z,101086.77
2023-04-10T05:35:00.052Z,101088.24
2023-04-10T05:37:50.832Z,101090.49
2023-04-10T05:40:45.282Z,101092.89
2023-04-10T05:43:32.447Z,101094.72
2023-04-10T05:51:43.594Z,101098.44
2023-04-10T05:54:42.797Z,101100.08
2023-04-10T05:57:25.035Z,101100.55
2023-04-10T06:00:10.932Z,101099.08
2023-04-10T06:02:41.836Z,101098.77
2023-04-10T06:05:13.465Z,101102.75
2023-04-10T06:07:42.453Z,101105.20
2023-04-10T06:10:10.016Z,101103.60
2023-04-10T06:12:37.134Z,101107.77
2023-04-10T06:15:05.883Z,101111.36
2023-04-10T06:17:41.207Z,101113.31
2023-04-10T06:20:08.846Z,101113.22
2023-04-10T06:22:41.598Z,101117.48
2023-04-10T06:25:10.840Z,101117.30
2023-04-10T06:27:37.626Z,101116.92
2023-04-10T06:30:10.623Z,101113.00
2023-04-10T06:32:40.199Z,101110.98
2023-04-10T06:35:08.155Z,101113.02
2023-04-10T06:37:35.773Z,101113.33
2023-04-10T06:40:13.271Z,101114.98
2023-04-10T06:42:40.983Z,101118.85
2023-04-10T06:45:13.995Z,101121.59
2023-04-10T06:47:40.878Z,101121.05
2023-04-10T06:50:14.930Z,101122.24
2023-04-10T06:52:44.229Z,101123.77
2023-04-10T06:55:12.454Z,101121.41
2023-04-10T06:57:59.223Z,101126.69
2023-04-10T07:00:26.286Z,101126.86
2023-04-10T07:02:53.639Z,101128.14
2023-04-10T07:05:20.398Z,101127.98
2023-04-10T07:07:47.104Z,101129.52
2023-04-10T07:10:13.960Z,101129.63
2023-04-10T07:12:40.829Z,101130.73
2023-04-10T07:15:13.048Z,101133.96
2023-04-10T07:17:40.876Z,101134.45
2023-04-10T07:20:08.875Z,101134.91
2023-04-10T07:22:42.618Z,101137.11
2023-04-10T07:25:13.744Z,101142.27
2023-04-10T07:27:41.200Z,101138.70
2023-04-10T07:30:12.284Z,101138.95
2023-04-10T07:32:42.771Z,101142.11
2023-04-10T07:35:09.927Z,101146.05
2023-04-10T07:37:43.359Z,101147.47
2023-04-10T07:40:10.652Z,101149.46
2023-04-10T07:42:37.414Z,101150.64
2023-04-10T07:45:05.283Z,101149.97
2023-04-10T07:47:32.451Z,101154.16
2023-04-10T07:49:59.829Z,101156.80
2023-04-10T07:52:26.764Z,101152.02
2023-04-10T07:54:53.612Z,101150.27
2023-04-10T07:57:24.112Z,101151.37
2023-04-10T07:59:51.083Z,101155.02
2023-04-10T08:02:17.998Z,101154.25
2023-04-10T08:04:45.724Z,101155.84
2023-04-10T08:07:13.009Z,101153.55
2023-04-10T08:09:40.265Z,101152.58
2023-04-10T08:12:07.684Z,101152.15
2023-04-10T08:18:06.614Z,101152.39
2023-04-10T08:20:57.482Z,101153.33
2023-04-10T08:26:29.986Z,101156.59
2023-04-10T08:29:18.656Z,101155.25
2023-04-10T08:32:00.404Z,101158.42
2023-04-10T08:34:27.609Z,101154.20
2023-04-10T08:36:54.861Z,101159.09
2023-04-10T08:39:22.212Z,101154.80
2023-04-10T08:41:48.996Z,101150.79
2023-04-10T08:44:16.382Z,101150.91
2023-04-10T08:46:44.837Z,101153.84
2023-04-10T08:49:23.958Z,101152.71
2023-04-10T08:51:58.245Z,101147.73
2023-04-10T08:54:28.695Z,101146.63
2023-04-10T08:56:56.202Z,101146.34
2023-04-10T08:59:22.917Z,101146.67
2023-04-10T09:01:50.035Z,101147.48
2023-04-10T09:04:17.417Z,101148.52
2023-04-10T09:06:44.628Z,101149.73
2023-04-10T09:09:19.868Z,101147.20
2023-04-10T09:11:56.287Z,101140.74
2023-04-10T09:14:24.712Z,101143.73
2023-04-10T09:16:52.273Z,101143.56
2023-04-10T09:19:33.150Z,101146.50
2023-04-10T09:22:00.208Z,101145.41
2023-04-10T09:24:27.212Z,101144.71
2023-04-10T09:26:55.320Z,101148.71
2023-04-10T09:29:22.674Z,101148.67
2023-04-10T09:31:50.764Z,101150.65
2023-04-10T09:34:21.938Z,101150.83
2023-04-10T09:36:58.602Z,101148.21
2023-04-10T09:39:45.338Z,101148.72
2023-04-10T09:42:12.413Z,101148.34
2023-04-10T09:44:39.980Z,101149.35
2023-04-10T09:47:13.064Z,101145.64
2023-04-10T09:49:44.661Z,101145.40
2023-04-10T09:52:18.333Z,101143.46
2023-04-10T09:54:45.775Z,101138.17
2023-04-10T09:57:17.812Z,101141.86
2023-04-10T09:59:50.940Z,101145.80
2023-04-10T10:02:18.920Z,101146.35
2023-04-10T10:04:46.872Z,101146.84
2023-04-10T10:07:19.312Z,101144.21
2023-04-10T10:09:48.754Z,101145.67
2023-04-10T10:12:18.747Z,101141.34
2023-04-10T10:15:13.529Z,101141.25
2023-04-10T10:17:44.923Z,101137.25
2023-04-10T10:20:11.729Z,101141.27
2023-04-10T10:22:48.456Z,101142.27
2023-04-10T10:25:15.838Z,101143.95
2023-04-10T10:27:42.794Z,101137.42
2023-04-10T10:30:28.195Z,101136.08
2023-04-10T10:32:58.074Z,101137.45
2023-04-10T10:35:30.300Z,101135.66
2023-04-10T10:38:00.135Z,101131.96
2023-04-10T10:40:29.603Z,101133.01
2023-04-10T10:43:08.961Z,101131.25
2023-04-10T10:46:01.274Z,101131.36
2023-04-10T10:48:28.160Z,101130.81
2023-04-10T10:50:58.365Z,101131.02
2023-04-10T10:53:36.489Z,101129.41
2023-04-10T10:56:32.979Z,101131.94
2023-04-10T10:59:01.363Z,101130.19
2023-04-10T11:01:28.478Z,101126.34
2023-04-10T11:03:56.906Z,101118.56
2023-04-10T11:06:49.585Z,101114.73
2023-04-10T11:09:47.866Z,101115.09
2023-04-10T11:12:24.431Z,101116.55
2023-04-10T11:14:59.681Z,101121.69
2023-04-10T11:17:51.972Z,101122.86
2023-04-10T11:20:21.394Z,101121.40
2023-04-10T11:23:11.254Z,101126.58
2023-04-10T11:25:52.371Z,101125.65
2023-04-10T11:28:31.392Z,101131.00
2023-04-10T11:31:21.828Z,101130.35
2023-04-10T11:34:10.824Z,101138.90
2023-04-10T11:36:38.717Z,101146.09
2023-04-10T11:39:09.785Z,101140.73
2023-04-10T11:41:38.560Z,101148.95
2023-04-10T11:44:06.827Z,101149.81
2023-04-10T11:46:40.922Z,101148.19
2023-04-10T11:49:09.315Z,101143.19
2023-04-10T11:51:36.775Z,101137.84
2023-04-10T11:54:13.518Z,101133.98
2023-04-10T11:56:42.747Z,101125.61
2023-04-10T11:59:10.422Z,101124.43
2023-04-10T12:01:39.356Z,101120.45
2023-04-10T12:04:17.423Z,101119.74
2023-04-10T12:06:46.338Z,101120.64
2023-04-10T12:09:18.031Z,101120.45
2023-04-10T12:11:52.975Z,101121.05
2023-04-10T12:14:23.213Z,101123.88
2023-04-10T12:16:50.761Z,101119.31
2023-04-10T12:19:22.002Z,101114.94
2023-04-10T12:21:48.657Z,101115.27
2023-04-10T12:24:40.863Z,101110.60
2023-04-10T12:27:28.717Z,101106.70
2023-04-10T12:29:57.017Z,101104.58
2023-04-10T12:32:24.940Z,101103.44
2023-04-10T12:34:58.227Z,101107.75
2023-04-10T12:37:45.830Z,101113.64
2023-04-10T12:40:13.553Z,101118.80
2023-04-10T12:42:43.645Z,101125.02
2023-04-10T12:45:13.171Z,101131.00
2023-04-10T12:47:47.804Z,101127.30
2023-04-10T12:50:20.137Z,101124.02
2023-04-10T12:53:08.548Z,101121.30
2023-04-10T12:55:35.290Z,101108.98
2023-04-10T12:58:31.288Z,101096.14
2023-04-10T13:01:03.829Z,101081.98
2023-04-10T13:03:37.973Z,101078.66
2023-04-10T13:06:06.949Z,101076.25
2023-04-10T13:08:34.973Z,101070.53
2023-04-10T13:11:03.423Z,101068.48
2023-04-10T13:13:33.049Z,101064.45
2023-04-10T13:16:00.349Z,101061.98
2023-04-10T13:18:27.461Z,101054.90
2023-04-10T13:20:54.302Z,101043.85
2023-04-10T13:23:23.975Z,101038.75
2023-04-10T13:25:51.708Z,101037.10
2023-04-10T13:28:20.984Z,101037.70
2023-04-10T13:30:48.121Z,101042.61
2023-04-10T13:33:15.577Z,101044.41
2023-04-10T13:35:42.561Z,101043.44
2023-04-10T13:38:11.051Z,101042.43
2023-04-10T13:40:43.244Z,101041.46
2023-04-10T13:43:10.661Z,101034.04
2023-04-10T13:45:37.581Z,101032.28
2023-04-10T13:48:06.834Z,101024.20
2023-04-10T13:50:34.180Z,101025.92
2023-04-10T13:53:08.561Z,101020.59
2023-04-10T13:55:37.333Z,101019.23
2023-04-10T13:58:04.440Z,101020.48
2023-04-10T14:00:31.527Z,101021.86
2023-04-10T14:02:59.381Z,101018.77
2023-04-10T14:05:27.073Z,101011.80
2023-04-10T14:07:56.482Z,101010.56
2023-04-10T14:10:23.674Z,101008.94
2023-04-10T14:12:50.508Z,101011.97
2023-04-10T14:15:18.852Z,101013.48
2023-04-10T14:17:46.890Z,101015.05
2023-04-10T14:20:13.689Z,101012.64
2023-04-10T14:22:40.980Z,101013.14
2023-04-10T14:25:13.636Z,101009.88
2023-04-10T14:27:41.984Z,101013.36
2023-04-10T14:30:10.199Z,101005.77
2023-04-10T14:32:40.378Z,101006.34
2023-04-10T14:35:08.137Z,101000.02
2023-04-10T14:37:35.503Z,101000.77
2023-04-10T14:40:04.374Z,101002.21
2023-04-10T14:42:32.121Z,100995.50
2023-04-10T14:44:58.984Z,100995.70
2023-04-10T14:47:26.719Z,100992.08
2023-04-10T14:49:53.901Z,100989.45
2023-04-10T14:52:20.747Z,100988.91
2023-04-10T14:54:47.488Z,100984.41
2023-04-10T14:57:18.934Z,100981.33
2023-04-10T14:59:45.641Z,100979.16
2023-04-10T15:02:12.672Z,100977.13
2023-04-10T15:04:40.650Z,100974.45
2023-04-10T15:07:07.772Z,100974.59
2023-04-10T15:09:34.701Z,100968.34
2023-04-10T15:12:01.991Z,100971.00
2023-04-10T15:14:28.918Z,100967.79
2023-04-10T15:16:55.758Z,100963.34
2023-04-10T15:19:33.226Z,100963.00
2023-04-10T15:21:59.957Z,100959.20
2023-04-10T15:24:27.194Z,100958.73
2023-04-10T15:26:57.234Z,100955.95
2023-04-10T15:29:24.386Z,100957.90
2023-04-10T15:31:51.898Z,100952.95
2023-04-10T15:34:19.057Z,100950.78
2023-04-10T15:36:46.463Z,100947.63
2023-04-10T15:39:14.289Z,100945.40
2023-04-10T15:41:41.461Z,100945.17
2023-04-10T15:44:08.418Z,100939.45
2023-04-10T15:46:36.966Z,100938.02
2023-04-10T15:49:04.864Z,100936.35
2023-04-10T15:51:31.810Z,100935.67
2023-04-10T15:53:58.805Z,100933.39
2023-04-10T15:56:25.630Z,100931.52
2023-04-10T15:58:55.296Z,100931.14
2023-04-10T16:01:22.190Z,100930.46
2023-04-10T16:03:52.390Z,100931.66
2023-04-10T16:06:20.141Z,100931.86
2023-04-10T16:08:47.161Z,100929.52
2023-04-10T16:11:14.243Z,100927.23
2023-04-10T16:15:13.449Z,100926.54
2023-04-10T16:29:25.679Z,100927.17
2023-04-10T16:31:54.118Z,100929.42
2023-04-10T16:34:22.433Z,100928.15
2023-04-10T16:36:50.819Z,100928.11
2023-04-10T16:39:19.764Z,100930.19
2023-04-10T16:41:48.087Z,100928.07
2023-04-10T16:44:16.608Z,100929.13
2023-04-10T16:53:24.950Z,100934.05
2023-04-10T16:56:04.521Z,100933.34
2023-04-10T16:58:42.023Z,100934.62
2023-04-10T17:01:21.589Z,100935.67
2023-04-10T17:03:53.383Z,100935.55
2023-04-10T17:06:22.870Z,100934.73
2023-04-10T17:08:51.708Z,100931.09
2023-04-10T17:11:25.465Z,100933.89
2023-04-10T17:14:01.472Z,100933.71
2023-04-10T17:16:35.148Z,100935.69
2023-04-10T17:19:03.508Z,100934.60
2023-04-10T17:21:34.444Z,100934.94
2023-04-10T17:24:13.052Z,100938.30
2023-04-10T17:26:41.390Z,100939.00
2023-04-10T17:29:26.018Z,100938.56
2023-04-10T17:32:00.292Z,100940.33
2023-04-10T17:34:31.142Z,100942.15
2023-04-10T17:37:08.562Z,100946.41
2023-04-10T17:39:46.379Z,100949.15
2023-04-10T17:42:17.989Z,100950.14
2023-04-10T17:44:48.936Z,100951.07
2023-04-10T17:47:26.888Z,100952.12
2023-04-10T17:49:56.924Z,100947.58
2023-04-10T17:52:28.953Z,100948.77
2023-04-10T17:55:03.182Z,100947.59
2023-04-10T17:57:36.551Z,100946.35
2023-04-10T18:00:14.511Z,100947.92
2023-04-10T18:02:43.511Z,100950.49
2023-04-10T18:05:23.901Z,100949.13
2023-04-10T18:08:20.420Z,100951.20
2023-04-10T18:11:00.624Z,100954.27
2023-04-10T18:13:39.008Z,100955.15
2023-04-10T18:16:29.280Z,100958.21
2023-04-10T18:19:01.432Z,100960.38
2023-04-10T18:21:42.032Z,100962.33
2023-04-10T18:24:11.222Z,100957.70
2023-04-10T18:26:47.296Z,100961.02
2023-04-10T18:29:32.651Z,100963.21
2023-04-10T18:32:03.116Z,100963.68
2023-04-10T18:34:39.574Z,100962.77
2023-04-10T18:37:13.889Z,100964.06
2023-04-10T18:39:50.633Z,100960.61
2023-04-10T18:42:27.928Z,100963.08
2023-04-10T18:44:59.990Z,100963.08
2023-04-10T18:47:37.587Z,100965.85
2023-04-10T18:50:21.423Z,100967.35
2023-04-10T18:53:15.502Z,100964.63
2023-04-10T18:55:54.029Z,100966.08
2023-04-10T18:58:49.830Z,100964.42
2023-04-10T19:01:42.879Z,100964.22
2023-04-10T19:04:15.805Z,100970.43
2023-04-10T19:06:54.234Z,100971.62
2023-04-10T19:09:24.491Z,100970.20
2023-04-10T19:11:58.285Z,100971.67
2023-04-10T19:14:37.570Z,100970.77
2023-04-10T19:17:14.581Z,100969.71
2023-04-10T19:19:51.315Z,100968.69
2023-04-10T19:22:30.046Z,100967.31
2023-04-10T19:25:08.338Z,100964.86
2023-04-10T19:27:40.227Z,100962.02
2023-04-10T19:30:18.045Z,100962.02
2023-04-10T19:32:50.679Z,100961.92
2023-04-10T19:35:22.765Z,100962.09
2023-04-10T19:38:02.320Z,100962.48
2023-04-10T19:40:33.523Z,100967.02
2023-04-10T19:43:10.761Z,100962.60
2023-04-10T19:45:39.300Z,100959.63
2023-04-10T19:48:09.833Z,100957.16
2023-04-10T19:50:48.628Z,100956.87
2023-04-10T19:53:27.372Z,100961.29
2023-04-10T19:56:03.064Z,100957.77
2023-04-10T20:01:15.064Z,100956.02
2023-04-10T20:03:54.432Z,100957.52
2023-04-10T20:06:32.355Z,100954.14
2023-04-10T20:09:06.105Z,100951.91
2023-04-10T20:11:37.084Z,100948.58
2023-04-10T20:14:09.506Z,100948.39
2023-04-10T20:16:41.207Z,100948.55
2023-04-10T20:21:11.177Z,100945.14
2023-04-10T20:23:40.629Z,100946.16
2023-04-10T20:26:20.438Z,100945.31
2023-04-10T20:28:53.945Z,100942.15
2023-04-10T20:31:23.140Z,100939.27
2023-04-10T20:33:53.483Z,100937.58
2023-04-10T20:36:23.075Z,100937.98
2023-04-10T20:38:51.389Z,100939.52
2023-04-10T20:41:19.453Z,100935.57
2023-04-10T20:56:00.816Z,100936.09
2023-04-10T20:58:29.040Z,100932.83
2023-04-10T21:00:57.459Z,100928.73
2023-04-10T21:03:27.319Z,100928.92
2023-04-10T21:05:55.788Z,100926.42
2023-04-10T21:08:25.496Z,100925.81
2023-04-10T21:10:53.974Z,100921.38
2023-04-10T21:13:22.458Z,100922.23
2023-04-10T21:15:51.251Z,100926.24
2023-04-10T21:18:20.446Z,100926.22
2023-04-10T21:20:50.411Z,100924.15
2023-04-10T21:23:18.586Z,100923.79
2023-04-10T21:25:51.908Z,100927.17
2023-04-10T21:28:21.697Z,100925.55
2023-04-10T21:30:50.037Z,100923.55
2023-04-10T21:33:19.332Z,100921.32
2023-04-10T21:35:48.955Z,100917.59
2023-04-10T21:38:17.409Z,100919.74
2023-04-10T21:40:51.860Z,100918.16
2023-04-10T21:43:21.080Z,100915.21
2023-04-10T21:45:49.368Z,100915.99
2023-04-10T21:48:19.784Z,100916.05
2023-04-10T21:50:49.216Z,100915.69
2023-04-10T21:53:17.616Z,100918.39
2023-04-10T21:55:46.116Z,100912.05
2023-04-10T21:58:14.283Z,100908.36
2023-04-10T22:00:47.231Z,100909.36
2023-04-10T22:03:16.925Z,100907.02
2023-04-10T22:05:45.931Z,100914.67
2023-04-10T22:08:15.062Z,100915.35
2023-04-10T22:10:45.598Z,100915.23
2023-04-10T22:13:30.441Z,100913.06
2023-04-10T22:16:02.040Z,100913.89
2023-04-10T22:18:31.534Z,100910.63
2023-04-10T22:21:07.580Z,100904.89
2023-04-10T22:23:37.040Z,100901.86
2023-04-10T22:26:05.769Z,100897.52
2023-04-10T22:28:33.953Z,100895.95
2023-04-10T22:31:02.285Z,100895.34
2023-04-10T22:33:33.773Z,100896.52
2023-04-10T22:36:01.993Z,100892.40
2023-04-10T22:38:30.431Z,100896.31
2023-04-10T22:40:59.018Z,100896.69
2023-04-10T22:43:27.226Z,100894.02
2023-04-10T22:45:55.644Z,100892.61
2023-04-10T22:48:24.801Z,100887.17
2023-04-10T22:50:53.616Z,100885.40
2023-04-10T22:53:24.172Z,100879.48
2023-04-10T22:55:52.456Z,100880.58
2023-04-10T22:58:22.733Z,100883.09
2023-04-10T23:00:51.949Z,100882.04
2023-04-10T23:03:20.201Z,100876.67
2023-04-10T23:05:50.674Z,100874.88
2023-04-10T23:08:18.957Z,100873.95
2023-04-10T23:10:47.142Z,100871.65
2023-04-10T23:13:18.796Z,100868.89
2023-04-10T23:15:52.961Z,100863.56
2023-04-10T23:18:21.392Z,100861.58
2023-04-10T23:20:51.151Z,100861.84
2023-04-10T23:23:20.123Z,100862.78
2023-04-10T23:25:48.474Z,100859.65
2023-04-10T23:28:22.643Z,100854.08
2023-04-10T23:30:51.719Z,100854.48
2023-04-10T23:33:19.911Z,100854.23
2023-04-10T23:35:48.428Z,100851.16
2023-04-10T23:38:16.689Z,100853.57
2023-04-10T23:40:44.903Z,100848.67
2023-04-10T23:43:13.639Z,100846.27
2023-04-10T23:45:41.859Z,100838.41
2023-04-10T23:48:15.166Z,100832.91
2023-04-10T23:50:44.760Z,100831.42
2023-04-10T23:53:14.573Z,100831.63
2023-04-10T23:55:44.487Z,100827.60
2023-04-10T23:58:13.071Z,100825.91
